• Join FlightAware (Why Join?)
  • Login
  • US Flag 
04:25AM EDT


 

Airport Tracker/Info


-or-


 

Live Flight TrackerFlight Track Log ✈ N9370U ✈ 16-Jun-2013 ✈ KFRG - KLWM

Flight Track Log - Related Links

Times and Time Zones

All times are in EDT time to prevent confusion due to time zone crossing. See the N9370U flight status page for this flight to view local times or setup timezone preferences in your user account.

Time Position Orientation Groundspeed Altitude Reporting Facility
EDT Latitude Longitude Course Direction KTS MPH feet Rate Location/Type
02:10PM 40.7167 -73.4333 24° Northeast 97 112 1,500  Level New York TRACON
02:11PM 40.7333 -73.4500 323° Northwest 107 123 2,100 660 Climbing New York TRACON
02:12PM 40.7667 -73.4500 360° North 109 125 2,900 660 Climbing New York TRACON
02:13PM 40.8000 -73.4333 21° North 116 133 3,500 600 Climbing New York TRACON
02:14PM 40.8333 -73.4000 37° Northeast 118 136 4,200 660 Climbing New York TRACON
02:15PM 40.9506 -73.2597 24° Northeast  Level FlightAware Approximate
02:15PM 40.8500 -73.3833 37° Northeast 122 140 4,800  Level New York TRACON
02:16PM 40.8833 -73.3500 37° Northeast 141 162 5,000 360 Climbing New York TRACON
02:17PM 40.9167 -73.3333 21° North 128 147 5,600 540 Climbing New York TRACON
02:18PM 40.9500 -73.3000 37° Northeast 123 142 6,200 600 Climbing New York TRACON
02:19PM 40.9833 -73.2833 21° North 123 142 6,800 360 Climbing New York TRACON
02:20PM 41.0000 -73.2500 56° Northeast 144 166 7,000 60 Climbing New York TRACON
02:21PM 41.0500 -73.2167 27° Northeast 164 189 7,000  Level New York TRACON
02:22PM 41.0833 -73.2000 21° North 168 193 7,000  Level New York TRACON
02:23PM 41.1167 -73.1667 37° Northeast 168 193 7,000  Level New York TRACON
02:24PM 41.1667 -73.1167 37° Northeast 168 193 7,000  Level New York TRACON
02:25PM 41.2000 -73.0833 37° Northeast 173 199 7,000  Level New York TRACON
02:26PM 41.2486 -73.0169 46° Northeast 174 200 7,000  Level Boston Center
02:28PM 41.3050 -72.9514 41° Northeast 173 199 7,000  Level Boston Center
02:29PM 41.3367 -72.9128 42° Northeast 175 201 7,000  Level Boston Center
02:30PM 41.3764 -72.8661 41° Northeast 175 201 7,000  Level Boston Center
02:30PM 41.4036 -72.8358 40° Northeast 175 201 7,000  Level Boston Center
02:31PM 41.4392 -72.7917 43° Northeast 174 200 7,000  Level Boston Center
02:33PM 41.4767 -72.7475 41° Northeast 173 199 7,000  Level Boston Center
02:34PM 41.5122 -72.7061 41° Northeast 174 200 7,000  Level Boston Center
02:35PM 41.5500 -72.6592 43° Northeast 176 203 7,000  Level Boston Center
02:36PM 41.5853 -72.6178 41° Northeast 178 205 7,000  Level Boston Center
02:36PM 41.6189 -72.5761 43° Northeast 175 201 7,000  Level Boston Center
02:37PM 41.6564 -72.5372 38° Northeast 173 199 7,000  Level Boston Center
02:39PM 41.7000 -72.5097 25° Northeast 171 197 7,000  Level Boston Center
02:40PM 41.7336 -72.4653 45° Northeast 172 198 7,000  Level Boston Center
02:41PM 41.7711 -72.4233 40° Northeast 177 204 7,000  Level Boston Center
02:42PM 41.8147 -72.3733 41° Northeast 172 198 7,000  Level Boston Center
02:43PM 41.8503 -72.3314 41° Northeast 174 200 7,000  Level Boston Center
02:44PM 41.8856 -72.2922 40° Northeast 169 194 7,000  Level Boston Center
02:45PM 41.9231 -72.2503 40° Northeast 168 193 7,000  Level Boston Center
02:46PM 41.9667 -72.2000 41° Northeast 173 199 7,000  Level Boston Center
02:47PM 42.0019 -72.1581 41° Northeast 172 198 7,000 -240 Level Boston Center
02:48PM 42.0353 -72.1214 39° Northeast 175 201 6,600 -480 Descending Boston Center
02:49PM 42.0747 -72.0764 40° Northeast 179 206 6,100 -600 Descending Boston Center
02:50PM 42.1078 -72.0372 41° Northeast 176 203 5,500 -600 Descending Boston Center
02:51PM 42.1494 -71.9919 39° Northeast 174 200 5,000 -240 Descending Boston Center
02:52PM 42.1847 -71.9525 40° Northeast 172 198 5,000  Level Boston Center
02:53PM 42.2219 -71.9075 42° Northeast 168 193 5,000  Level Boston Center
02:54PM 42.2553 -71.8678 41° Northeast 160 184 5,000  Level Boston Center
02:55PM 42.2861 -71.8339 39° Northeast 159 183 5,000  Level Boston Center
02:57PM 42.3500 -71.7500 44° Northeast 160 184 5,000  Level KA90
02:58PM 42.3833 -71.7000 48° Northeast 164 189 5,000  Level KA90
02:59PM 42.4167 -71.6500 48° Northeast 164 189 5,000  Level KA90
03:00PM 42.4333 -71.6000 66° East 167 192 5,000 -180 Level KA90
03:01PM 42.4667 -71.5500 48° Northeast 169 194 4,700 -420 Descending KA90
03:02PM 42.5000 -71.5000 48° Northeast 174 200 4,200 -360 Descending KA90
03:03PM 42.5333 -71.4500 48° Northeast 169 194 4,000 -300 Descending KA90
03:04PM 42.5500 -71.4000 66° East 166 191 3,600 -540 Descending KA90
03:05PM 42.5833 -71.3500 48° Northeast 172 198 3,000 -600 Descending KA90
03:06PM 42.6167 -71.3000 48° Northeast 173 199 2,500 -540 Descending KA90
03:07PM 42.6500 -71.2500 48° Northeast 169 194 2,000 -420 Descending KA90
03:08PM 42.6833 -71.2000 48° Northeast 163 188 1,700 -360 Descending KA90
03:09PM 42.7000 -71.1667 56° Northeast 138 159 1,300 -300 Descending KA90
03:10PM 42.7333 -71.1333 36° Northeast 127 146 1,100 -300 Descending KA90
03:11PM 42.7500 -71.1000 56° Northeast 97 112 700 -420 Descending KA90
03:13PM 42.7167 -71.1167 200° South  Level FlightAware Approximate
03:20PM 42.7172 -71.1234 200° South  Level Estimated